Time;durP1;ratioP1;P1;durP2;ratioP2;P2;SDS_P1;SDS_P2;PMS_P1;PMS_P2;Temp;Humidity;BMP_temperature;BMP_pressure;BME280_temperature;BME280_humidity;BME280_pressure;Samples;Min_cycle;Max_cycle;Signal;HPM_P1;HPM_P2
2022/01/31 00:01:07;;;;;;;29.13;6.63;;;;;;;4.33;100.00;101483.81;5100746;28;20042;-77
2022/01/31 00:03:34;;;;;;;37.65;8.32;;;;;;;4.28;100.00;101457.50;5100796;28;20118;-75
2022/01/31 00:06:03;;;;;;;29.58;8.18;;;;;;;4.30;100.00;101445.47;5100449;28;20098;-75
2022/01/31 00:08:28;;;;;;;29.45;8.65;;;;;;;4.27;100.00;101440.09;5105478;28;20137;-75
2022/01/31 00:10:54;;;;;;;28.52;8.20;;;;;;;4.24;100.00;101415.59;5098347;28;20419;-74
2022/01/31 00:13:34;;;;;;;41.75;9.38;;;;;;;4.26;100.00;101414.88;5095820;28;20093;-77
2022/01/31 00:15:59;;;;;;;35.03;10.20;;;;;;;4.23;100.00;101412.09;5096607;28;20031;-77
2022/01/31 00:18:25;;;;;;;34.53;9.90;;;;;;;4.21;100.00;101408.53;5099964;28;20036;-77
2022/01/31 00:20:51;;;;;;;35.60;11.23;;;;;;;4.23;100.00;101399.06;5095064;28;20028;-76
2022/01/31 00:23:16;;;;;;;33.17;10.98;;;;;;;4.22;100.00;101394.69;5095781;28;20039;-78
2022/01/31 00:25:42;;;;;;;32.33;11.15;;;;;;;4.20;100.00;101389.38;5102343;28;20034;-77
2022/01/31 00:28:07;;;;;;;36.70;11.68;;;;;;;4.19;100.00;101365.88;5102550;28;20152;-78
2022/01/31 00:30:32;;;;;;;30.27;11.52;;;;;;;4.20;100.00;101354.63;5099839;28;20047;-77
2022/01/31 00:32:58;;;;;;;37.65;11.68;;;;;;;4.21;100.00;101346.00;5083673;28;20035;-78
2022/01/31 00:35:25;;;;;;;31.42;11.60;;;;;;;4.24;100.00;101333.13;5096228;28;20031;-78
2022/01/31 00:37:51;;;;;;;34.10;11.15;;;;;;;4.25;100.00;101316.69;5086292;28;20074;-78
2022/01/31 00:40:16;;;;;;;39.42;11.30;;;;;;;4.26;100.00;101308.06;5083450;28;20452;-79
2022/01/31 00:42:42;;;;;;;39.75;12.43;;;;;;;4.29;100.00;101303.00;5078939;28;20110;-78
2022/01/31 00:45:23;;;;;;;35.42;9.82;;;;;;;4.32;100.00;101300.53;5098929;28;20106;-79
2022/01/31 00:47:59;;;;;;;29.85;10.05;;;;;;;4.34;100.00;101285.91;5081515;28;20105;-80
2022/01/31 00:50:24;;;;;;;31.95;9.77;;;;;;;4.39;100.00;101274.00;5062559;28;20049;-80
2022/01/31 00:52:50;;;;;;;30.02;9.50;;;;;;;4.41;100.00;101266.25;5079035;28;20154;-78
2022/01/31 00:55:16;;;;;;;31.27;9.13;;;;;;;4.42;100.00;101269.72;5081318;28;20115;-80
2022/01/31 00:57:42;;;;;;;30.77;8.57;;;;;;;4.46;100.00;101253.41;5079645;28;20024;-79
2022/01/31 01:00:09;;;;;;;27.10;8.30;;;;;;;4.49;100.00;101243.13;5080200;28;20032;-79
2022/01/31 01:02:34;;;;;;;37.22;8.40;;;;;;;4.52;100.00;101228.56;5064279;28;20052;-80
2022/01/31 01:05:00;;;;;;;29.60;8.25;;;;;;;4.55;100.00;101227.81;5077558;28;20465;-78
2022/01/31 01:07:25;;;;;;;36.25;8.18;;;;;;;4.59;100.00;101214.09;5082652;28;20384;-80
2022/01/31 01:09:51;;;;;;;34.85;8.38;;;;;;;4.63;100.00;101195.16;5081862;28;20040;-79
2022/01/31 01:12:18;;;;;;;19.38;5.80;;;;;;;4.63;100.00;101195.16;5063718;28;20084;-80
2022/01/31 01:14:45;;;;;;;21.20;5.88;;;;;;;4.68;100.00;101185.84;5057387;28;20038;-79
2022/01/31 01:17:10;;;;;;;19.27;5.72;;;;;;;4.76;100.00;101180.09;5057144;28;20107;-82
2022/01/31 01:19:36;;;;;;;13.35;4.63;;;;;;;4.81;100.00;101173.38;5061449;28;20028;-83
2022/01/31 01:22:02;;;;;;;21.25;7.25;;;;;;;4.84;100.00;101165.69;5060266;28;20028;-82
2022/01/31 01:24:28;;;;;;;21.65;5.32;;;;;;;4.87;100.00;101163.22;5061708;28;20047;-80
2022/01/31 01:26:54;;;;;;;18.42;6.43;;;;;;;4.92;100.00;101166.91;5061116;28;20028;-80
2022/01/31 01:29:20;;;;;;;24.35;6.50;;;;;;;5.02;100.00;101153.47;5073679;28;20039;-81
2022/01/31 01:31:46;;;;;;;18.33;5.88;;;;;;;5.14;100.00;101162.66;5064889;28;20024;-80
2022/01/31 01:34:12;;;;;;;24.38;5.43;;;;;;;5.26;100.00;101147.53;5066883;28;20522;-81
2022/01/31 01:36:38;;;;;;;25.33;6.30;;;;;;;5.38;100.00;101119.34;5076746;28;20118;-80
2022/01/31 01:39:04;;;;;;;29.75;6.22;;;;;;;5.48;100.00;101124.94;5075419;28;20480;-80
2022/01/31 01:41:30;;;;;;;31.65;6.57;;;;;;;5.50;100.00;101118.97;5085463;28;20379;-80
2022/01/31 01:43:55;;;;;;;36.97;6.40;;;;;;;5.57;100.00;101120.13;5083236;28;20036;-81
2022/01/31 01:46:21;;;;;;;39.72;5.80;;;;;;;5.67;100.00;101111.84;5081824;28;20085;-81
2022/01/31 01:48:46;;;;;;;30.40;5.47;;;;;;;5.76;100.00;101107.81;5085771;28;20020;-81
2022/01/31 01:51:12;;;;;;;50.70;7.60;;;;;;;5.83;100.00;101109.84;5105203;28;20042;-82
2022/01/31 01:53:38;;;;;;;36.05;5.85;;;;;;;5.87;100.00;101099.59;5105798;28;20401;-81
2022/01/31 01:56:03;;;;;;;39.67;5.25;;;;;;;5.98;100.00;101100.06;5098665;28;20039;-82
2022/01/31 01:58:38;;;;;;;28.08;5.10;;;;;;;6.11;100.00;101095.31;5107273;28;20081;-82
2022/01/31 02:01:05;;;;;;;24.00;3.83;;;;;;;6.15;100.00;101097.22;5084037;28;20020;-80
2022/01/31 02:03:33;;;;;;;27.17;3.78;;;;;;;6.22;100.00;101086.16;5085212;28;20451;-81
2022/01/31 02:05:59;;;;;;;23.83;4.25;;;;;;;6.26;100.00;101066.25;5088670;28;20016;-80
2022/01/31 02:08:27;;;;;;;30.08;4.28;;;;;;;6.26;100.00;101059.31;5080277;28;20031;-81
2022/01/31 02:10:53;;;;;;;19.48;3.40;;;;;;;6.31;100.00;101083.88;5100679;28;20372;-80
2022/01/31 02:13:19;;;;;;;24.02;4.93;;;;;;;6.29;100.00;101059.41;5107645;28;20044;-81
2022/01/31 02:15:46;;;;;;;22.70;4.45;;;;;;;6.28;100.00;101068.09;5084768;28;20040;-79
2022/01/31 02:18:13;;;;;;;24.75;5.00;;;;;;;6.32;100.00;101062.16;5083125;28;20395;-81
2022/01/31 02:20:40;;;;;;;34.22;4.20;;;;;;;6.34;100.00;101060.47;5101019;28;20106;-80
2022/01/31 02:23:10;;;;;;;18.25;3.35;;;;;;;6.36;100.00;101050.06;5101233;28;20365;-78
2022/01/31 02:25:56;;;;;;;20.48;3.83;;;;;;;6.36;100.00;101040.53;5080942;28;20489;-79
2022/01/31 02:28:24;;;;;;;21.25;3.63;;;;;;;6.37;100.00;101047.50;5106488;28;20498;-79
2022/01/31 02:30:50;;;;;;;26.58;4.13;;;;;;;6.38;100.00;101044.06;5098384;28;20060;-79
2022/01/31 02:33:16;;;;;;;20.58;3.47;;;;;;;6.41;100.00;101041.56;5084861;28;20122;-79
2022/01/31 02:35:41;;;;;;;18.48;3.45;;;;;;;6.40;100.00;101042.41;5098743;28;20036;-78
2022/01/31 02:38:07;;;;;;;21.38;3.53;;;;;;;6.40;100.00;101031.06;5104800;28;20317;-79
2022/01/31 02:40:32;;;;;;;22.92;3.40;;;;;;;6.41;100.00;101025.88;5097813;28;20062;-79
2022/01/31 02:42:57;;;;;;;18.08;3.28;;;;;;;6.45;100.00;101008.59;5084489;28;20031;-79
2022/01/31 02:45:23;;;;;;;21.70;3.67;;;;;;;6.43;100.00;101019.81;5099978;28;20039;-78
2022/01/31 02:47:54;;;;;;;18.10;2.60;;;;;;;6.44;100.00;101011.16;5087548;28;20031;-79
2022/01/31 02:50:19;;;;;;;15.63;2.95;;;;;;;6.48;100.00;101007.81;5097948;28;20131;-80
2022/01/31 02:52:57;;;;;;;24.58;3.08;;;;;;;6.46;100.00;101014.69;5097557;28;20053;-78
2022/01/31 02:55:22;;;;;;;15.68;2.58;;;;;;;6.50;100.00;101006.16;5098807;28;20106;-79
2022/01/31 02:57:48;;;;;;;10.40;2.50;;;;;;;6.55;100.00;101012.41;5102504;28;20142;-78
2022/01/31 03:00:13;;;;;;;20.20;3.80;;;;;;;6.50;100.00;101014.88;5077192;28;20122;-78
2022/01/31 03:02:39;;;;;;;16.33;2.97;;;;;;;6.42;100.00;101005.88;5087409;28;20031;-79
2022/01/31 03:05:05;;;;;;;16.80;3.85;;;;;;;6.42;100.00;101011.09;5099370;28;20020;-78
2022/01/31 03:07:30;;;;;;;16.88;3.30;;;;;;;6.43;100.00;100999.81;5079811;28;20436;-78
2022/01/31 03:09:56;;;;;;;16.55;3.22;;;;;;;6.39;100.00;101019.72;5082472;28;20022;-78
2022/01/31 03:12:22;;;;;;;15.00;3.15;;;;;;;6.34;100.00;101004.72;5101881;28;20466;-78
2022/01/31 03:14:48;;;;;;;16.13;2.15;;;;;;;6.32;100.00;101008.97;5097034;28;20374;-78
2022/01/31 03:17:13;;;;;;;14.48;2.28;;;;;;;6.30;100.00;100997.59;5101306;28;20032;-79
2022/01/31 03:19:40;;;;;;;17.20;2.92;;;;;;;6.33;100.00;101002.94;5096782;28;20497;-79
2022/01/31 03:22:06;;;;;;;28.02;3.28;;;;;;;6.31;100.00;101000.25;5103842;28;20052;-79
2022/01/31 03:24:32;;;;;;;18.73;2.58;;;;;;;6.30;100.00;100985.41;5095089;28;20469;-78
2022/01/31 03:26:58;;;;;;;17.88;3.33;;;;;;;6.33;100.00;100980.28;5084632;28;20024;-77
2022/01/31 03:29:24;;;;;;;17.05;3.50;;;;;;;6.36;100.00;100974.28;5085720;28;20085;-77
2022/01/31 03:31:49;;;;;;;14.32;2.97;;;;;;;6.41;99.57;100960.53;5095930;28;20019;-78
2022/01/31 03:34:14;;;;;;;14.05;2.67;;;;;;;6.44;98.88;100975.44;5081497;28;20034;-77
2022/01/31 03:36:40;;;;;;;14.55;2.58;;;;;;;6.44;99.13;100964.09;5105958;28;20123;-78
2022/01/31 03:39:05;;;;;;;16.02;2.15;;;;;;;6.44;98.69;100969.34;5083229;28;20035;-78
2022/01/31 03:41:30;;;;;;;20.25;2.58;;;;;;;6.44;98.60;100956.25;5100236;28;20032;-78
2022/01/31 03:43:56;;;;;;;17.65;3.53;;;;;;;6.43;97.52;100957.09;5098350;28;20111;-78
2022/01/31 03:46:22;;;;;;;21.10;2.15;;;;;;;6.40;97.40;100953.56;5097302;28;20047;-79
2022/01/31 03:48:48;;;;;;;16.42;2.20;;;;;;;6.42;95.84;100943.16;5096891;28;20031;-78
2022/01/31 03:51:14;;;;;;;24.33;2.55;;;;;;;6.41;96.31;100960.53;5104966;28;20028;-78
2022/01/31 03:53:40;;;;;;;21.25;3.10;;;;;;;6.41;95.19;100959.66;5099143;28;20028;-79
2022/01/31 03:56:06;;;;;;;16.15;2.63;;;;;;;6.46;94.85;100946.72;5085994;28;20024;-78
2022/01/31 03:58:31;;;;;;;13.88;2.65;;;;;;;6.46;95.02;100941.50;5082603;28;20028;-78
2022/01/31 04:00:57;;;;;;;14.88;2.38;;;;;;;6.48;94.65;100938.13;5085727;28;20028;-78
2022/01/31 04:03:22;;;;;;;18.33;2.30;;;;;;;6.47;94.85;100935.44;5096207;28;20060;-77
2022/01/31 04:05:48;;;;;;;16.15;2.30;;;;;;;6.45;94.83;100926.69;5099167;28;20063;-78
2022/01/31 04:08:13;;;;;;;18.95;2.90;;;;;;;6.50;93.83;100928.63;5105047;28;20379;-79
2022/01/31 04:10:38;;;;;;;19.60;2.63;;;;;;;6.49;93.17;100936.41;5097755;28;20032;-79
2022/01/31 04:13:06;;;;;;;15.15;2.22;;;;;;;6.54;92.40;100925.28;5083112;28;20024;-77
2022/01/31 04:15:32;;;;;;;21.40;2.65;;;;;;;6.52;92.41;100921.69;5082632;28;20052;-77
2022/01/31 04:17:57;;;;;;;15.10;2.47;;;;;;;6.53;91.90;100928.72;5095779;28;20556;-77
2022/01/31 04:20:23;;;;;;;11.57;2.50;;;;;;;6.54;92.05;100930.50;5096030;28;20020;-78
2022/01/31 04:22:57;;;;;;;14.20;2.45;;;;;;;6.57;91.30;100929.72;5081092;28;20023;-78
2022/01/31 04:25:30;;;;;;;17.08;2.40;;;;;;;6.61;91.11;100942.06;5076671;28;20123;-77
2022/01/31 04:28:05;;;;;;;14.52;2.00;;;;;;;6.64;90.40;100910.78;5100453;28;20387;-77
2022/01/31 04:30:44;;;;;;;14.95;2.42;;;;;;;6.69;90.01;100914.44;5096571;28;20144;-77
2022/01/31 04:33:10;;;;;;;19.13;2.97;;;;;;;6.63;91.51;100914.22;5077485;28;20032;-77
2022/01/31 04:35:35;;;;;;;20.15;2.83;;;;;;;6.63;90.44;100914.22;5103412;28;20038;-77
2022/01/31 04:38:00;;;;;;;16.88;3.72;;;;;;;6.62;90.98;100912.47;5098325;28;20391;-78
2022/01/31 04:40:26;;;;;;;21.38;2.75;;;;;;;6.62;89.90;100917.69;5099466;28;20053;-77
2022/01/31 04:42:51;;;;;;;17.60;2.45;;;;;;;6.61;90.66;100918.53;5079880;28;20016;-78
2022/01/31 04:45:16;;;;;;;27.52;4.05;;;;;;;6.49;92.60;100923.34;5095390;28;20035;-77
2022/01/31 04:47:42;;;;;;;18.40;2.60;;;;;;;6.46;92.56;100928.44;5084970;28;20024;-77
2022/01/31 04:50:07;;;;;;;14.50;3.30;;;;;;;6.35;93.61;100922.88;5102029;28;20070;-76
2022/01/31 04:52:33;;;;;;;15.90;2.30;;;;;;;6.18;96.34;100933.59;5096018;28;20030;-77
2022/01/31 04:54:58;;;;;;;18.27;2.80;;;;;;;6.00;98.90;100941.66;5078988;28;20042;-77
2022/01/31 04:57:24;;;;;;;18.10;2.53;;;;;;;5.84;100.00;100958.44;5102162;28;20043;-77
2022/01/31 04:59:50;;;;;;;16.80;2.30;;;;;;;5.65;100.00;100954.25;5076624;28;20444;-77
2022/01/31 05:02:16;;;;;;;22.05;3.83;;;;;;;5.39;100.00;100961.06;5095394;28;20028;-78
2022/01/31 05:04:41;;;;;;;28.48;3.67;;;;;;;5.28;100.00;100958.03;5098503;28;20034;-77
2022/01/31 05:07:06;;;;;;;21.02;2.67;;;;;;;5.26;100.00;100945.75;5079564;28;20119;-77
2022/01/31 05:09:32;;;;;;;22.33;3.00;;;;;;;5.31;100.00;100946.84;5079872;28;20049;-77
2022/01/31 05:11:57;;;;;;;27.83;3.28;;;;;;;5.40;100.00;100934.16;5100930;28;20043;-78
2022/01/31 05:14:22;;;;;;;29.63;4.70;;;;;;;5.54;100.00;100924.25;5093499;28;20024;-78
2022/01/31 05:16:48;;;;;;;17.95;2.97;;;;;;;5.65;100.00;100948.13;5107123;28;20028;-79
2022/01/31 05:19:14;;;;;;;21.70;3.22;;;;;;;5.66;100.00;100927.31;5106089;28;20079;-76
2022/01/31 05:21:39;;;;;;;25.20;3.15;;;;;;;5.64;100.00;100930.69;5105764;28;20378;-78
2022/01/31 05:24:06;;;;;;;27.05;4.45;;;;;;;5.63;100.00;100928.91;5085155;28;20040;-78
2022/01/31 05:26:32;;;;;;;20.23;4.00;;;;;;;5.70;100.00;100933.56;5100487;28;20485;-78
2022/01/31 05:28:57;;;;;;;21.05;2.67;;;;;;;5.70;100.00;100918.75;5096794;28;20082;-77
2022/01/31 05:31:23;;;;;;;27.17;3.83;;;;;;;5.74;99.83;100918.03;5101484;28;20024;-77
2022/01/31 05:33:48;;;;;;;17.55;3.25;;;;;;;5.86;98.01;100919.31;5100577;28;20480;-77
2022/01/31 05:36:14;;;;;;;15.02;3.10;;;;;;;5.94;96.77;100903.94;5081630;28;20032;-77
2022/01/31 05:38:40;;;;;;;17.23;3.05;;;;;;;6.00;95.69;100910.31;5085743;28;20028;-76
2022/01/31 05:41:08;;;;;;;19.60;3.78;;;;;;;6.03;96.25;100923.47;5101050;28;20853;-77
2022/01/31 05:43:35;;;;;;;27.95;4.55;;;;;;;5.99;98.20;100916.34;5088322;28;20024;-78
2022/01/31 05:46:00;;;;;;;28.05;3.35;;;;;;;5.99;97.86;100918.09;5104133;28;20485;-77
2022/01/31 05:48:26;;;;;;;22.25;3.72;;;;;;;5.99;97.62;100918.97;5105128;28;20035;-77
2022/01/31 05:50:51;;;;;;;26.13;3.80;;;;;;;5.96;97.74;100905.78;5111859;28;20058;-77
2022/01/31 05:53:17;;;;;;;24.15;3.78;;;;;;;5.99;97.12;100891.97;5102573;28;20031;-77
2022/01/31 05:55:45;;;;;;;22.25;3.60;;;;;;;6.01;96.91;100900.75;5104434;28;20036;-77
2022/01/31 05:58:10;;;;;;;25.98;5.88;;;;;;;6.02;96.16;100903.44;5086632;28;20034;-77
2022/01/31 06:00:37;;;;;;;26.35;3.80;;;;;;;6.05;94.91;100898.31;5107661;28;20091;-77
2022/01/31 06:03:03;;;;;;;27.35;3.60;;;;;;;6.06;95.04;100900.09;5101722;28;20032;-78
2022/01/31 06:05:29;;;;;;;24.33;3.20;;;;;;;6.12;94.90;100890.66;5099745;28;20043;-77
2022/01/31 06:07:54;;;;;;;22.38;3.20;;;;;;;6.18;93.71;100883.06;5102635;28;20119;-78
2022/01/31 06:10:22;;;;;;;22.73;2.75;;;;;;;6.23;92.49;100886.75;5106159;28;20032;-78
2022/01/31 06:12:48;;;;;;;19.52;2.85;;;;;;;6.28;92.90;100892.09;5082497;28;20028;-77
2022/01/31 06:15:13;;;;;;;27.95;3.80;;;;;;;6.32;92.63;100900.13;5096929;28;20391;-77
2022/01/31 06:17:40;;;;;;;28.05;3.75;;;;;;;6.35;91.31;100912.41;5102541;28;20391;-78
2022/01/31 06:20:06;;;;;;;27.88;4.28;;;;;;;6.35;92.83;100892.38;5097074;28;20068;-78
2022/01/31 06:22:31;;;;;;;26.35;3.95;;;;;;;6.29;92.72;100902.59;5088673;28;20180;-78
2022/01/31 06:24:57;;;;;;;20.40;3.30;;;;;;;6.28;92.18;100876.44;5103213;28;20477;-77
2022/01/31 06:27:22;;;;;;;32.60;3.75;;;;;;;6.32;92.50;100887.06;5095896;28;20107;-77
2022/01/31 06:29:47;;;;;;;28.33;4.00;;;;;;;6.31;92.11;100895.72;5100813;28;20478;-75
2022/01/31 06:32:13;;;;;;;24.50;4.00;;;;;;;6.35;91.85;100887.16;5086728;28;20059;-77
2022/01/31 06:34:38;;;;;;;26.35;4.18;;;;;;;6.32;92.50;100896.59;5105973;28;20034;-82
2022/01/31 06:37:04;;;;;;;25.83;4.35;;;;;;;6.31;92.26;100916.63;5100383;28;20149;-80
2022/01/31 06:39:31;;;;;;;21.88;3.88;;;;;;;6.22;95.32;100930.25;5101662;28;20625;-79
2022/01/31 06:41:56;;;;;;;27.50;4.13;;;;;;;5.97;99.66;100949.34;5103631;27;20028;-83
2022/01/31 06:44:21;;;;;;;20.35;3.13;;;;;;;5.67;100.00;100957.81;5104921;28;20170;-79
2022/01/31 06:46:48;;;;;;;22.30;3.58;;;;;;;5.40;100.00;100952.41;5110879;28;20020;-77
2022/01/31 06:49:13;;;;;;;22.05;3.72;;;;;;;5.22;100.00;100979.56;5082884;28;20036;-80
2022/01/31 06:51:39;;;;;;;28.33;3.72;;;;;;;5.11;100.00;100961.69;5091587;28;20027;-80
2022/01/31 06:54:05;;;;;;;33.45;4.10;;;;;;;5.09;100.00;100971.16;5083653;28;20081;-81
2022/01/31 06:56:34;;;;;;;27.52;3.80;;;;;;;5.05;100.00;100960.59;5080087;28;20555;-81
2022/01/31 06:59:02;;;;;;;33.80;3.22;;;;;;;5.07;100.00;100943.31;5100842;28;20028;-77
2022/01/31 07:01:27;;;;;;;28.63;3.85;;;;;;;5.12;100.00;100950.44;5084173;28;20036;-77
2022/01/31 07:03:54;;;;;;;37.85;4.80;;;;;;;5.17;100.00;100952.38;5109599;28;20019;-75
2022/01/31 07:06:24;;;;;;;24.63;3.67;;;;;;;5.26;100.00;100959.69;5106470;28;20111;-77
2022/01/31 07:08:50;;;;;;;35.60;5.05;;;;;;;5.33;100.00;100959.13;5078905;28;20081;-77
2022/01/31 07:11:21;;;;;;;35.88;5.22;;;;;;;5.39;100.00;100956.72;5082379;28;20027;-81
2022/01/31 07:13:49;;;;;;;28.75;4.28;;;;;;;5.45;100.00;100952.59;5102307;28;20024;-79
2022/01/31 07:16:14;;;;;;;26.50;3.53;;;;;;;5.44;100.00;100969.97;5097785;28;20036;-79
2022/01/31 07:18:40;;;;;;;21.67;4.20;;;;;;;5.45;100.00;100970.84;5087403;28;20369;-79
2022/01/31 07:21:06;;;;;;;18.42;3.38;;;;;;;5.53;100.00;100953.78;5079062;28;20020;-80
2022/01/31 07:23:51;;;;;;;18.60;3.03;;;;;;;5.57;100.00;100940.00;5095065;28;20070;-79
2022/01/31 07:26:17;;;;;;;23.30;3.47;;;;;;;5.67;100.00;100921.25;5085922;28;20089;-79
2022/01/31 07:28:43;;;;;;;28.80;3.58;;;;;;;5.73;100.00;100947.59;5083688;28;20042;-81
2022/01/31 07:31:11;;;;;;;29.48;3.58;;;;;;;5.71;100.00;100954.50;5095411;28;20582;-78
2022/01/31 07:33:37;;;;;;;30.73;5.15;;;;;;;5.56;100.00;100975.66;5103645;28;20080;-79
2022/01/31 07:36:03;;;;;;;31.50;4.72;;;;;;;5.40;100.00;100955.03;5081134;28;20028;-80
2022/01/31 07:38:29;;;;;;;36.20;5.15;;;;;;;5.34;100.00;100973.91;5107386;28;20036;-81
2022/01/31 07:40:57;;;;;;;36.97;4.43;;;;;;;5.34;100.00;100979.13;5091414;27;20850;-78
2022/01/31 07:43:23;;;;;;;36.22;4.35;;;;;;;5.33;100.00;100966.94;5096798;28;20028;-79
2022/01/31 07:45:48;;;;;;;32.50;4.53;;;;;;;5.42;100.00;100960.31;5097104;28;20403;-80
2022/01/31 07:48:13;;;;;;;21.75;4.65;;;;;;;5.50;100.00;100977.16;5095102;27;20471;-79
2022/01/31 07:50:39;;;;;;;29.02;5.75;;;;;;;5.60;100.00;100981.88;5084139;27;20069;-80
2022/01/31 07:53:05;;;;;;;26.92;4.38;;;;;;;5.68;100.00;100927.38;5070964;28;20027;-79
2022/01/31 07:55:30;;;;;;;39.65;4.78;;;;;;;5.75;100.00;100976.34;5080324;28;20436;-79
2022/01/31 07:57:55;;;;;;;26.63;3.70;;;;;;;5.76;100.00;101003.38;5081603;28;20020;-79
2022/01/31 08:00:21;;;;;;;36.40;4.45;;;;;;;5.81;100.00;100981.84;5075312;28;20039;-78
2022/01/31 08:02:46;;;;;;;32.20;4.20;;;;;;;5.80;100.00;100990.50;5090170;28;20020;-77
2022/01/31 08:05:11;;;;;;;31.30;4.57;;;;;;;5.88;100.00;100977.72;5061117;28;20060;-77
2022/01/31 08:07:37;;;;;;;37.63;5.40;;;;;;;6.03;98.32;100983.56;5073811;28;20551;-78
2022/01/31 08:10:04;;;;;;;39.67;5.03;;;;;;;6.00;98.99;100978.22;5074407;28;20017;-78
2022/01/31 08:12:30;;;;;;;32.03;4.70;;;;;;;6.05;97.60;100991.44;5061569;28;20082;-79
2022/01/31 08:15:02;;;;;;;31.67;4.63;;;;;;;6.03;99.89;101014.91;5080267;28;20020;-77
2022/01/31 08:17:28;;;;;;;38.75;4.95;;;;;;;5.99;100.00;101010.41;5062225;28;20028;-79
2022/01/31 08:19:53;;;;;;;27.42;4.03;;;;;;;5.91;100.00;101041.44;5074636;28;20024;-78
2022/01/31 08:22:19;;;;;;;31.02;5.57;;;;;;;5.87;100.00;101015.13;5057711;28;20044;-78
2022/01/31 08:24:44;;;;;;;34.20;4.90;;;;;;;5.84;100.00;101043.72;5093013;28;20028;-78
2022/01/31 08:27:09;;;;;;;39.95;4.80;;;;;;;5.87;100.00;101028.19;5087557;28;20032;-77
2022/01/31 08:29:37;;;;;;;14.65;3.65;;;;;;;5.87;100.00;101034.31;5085528;28;20086;-77
2022/01/31 08:32:14;;;;;;;26.25;4.03;;;;;;;5.92;99.27;101005.75;5076660;28;20055;-76
2022/01/31 08:37:25;;;;;;;28.67;5.72;;;;;;;5.87;99.72;101031.69;5081406;28;20046;-77
2022/01/31 08:39:50;;;;;;;31.50;5.38;;;;;;;5.87;100.00;101017.72;5066258;28;20024;-76
2022/01/31 08:42:15;;;;;;;34.78;4.88;;;;;;;5.89;99.29;101058.75;5061150;28;20021;-78
2022/01/31 08:44:41;;;;;;;42.17;5.13;;;;;;;5.94;98.57;101047.59;5093637;28;20028;-76
2022/01/31 08:47:06;;;;;;;36.03;4.78;;;;;;;5.92;98.66;101037.09;5087605;28;20020;-77
2022/01/31 08:49:35;;;;;;;51.28;5.65;;;;;;;5.95;98.94;101018.91;5078678;28;20117;-77
2022/01/31 08:52:01;;;;;;;43.78;5.90;;;;;;;5.99;98.41;101033.91;5085180;28;20031;-77
2022/01/31 08:54:26;;;;;;;39.30;5.50;;;;;;;6.02;98.37;101018.38;5098139;28;20027;-74
2022/01/31 08:56:51;;;;;;;47.08;8.13;;;;;;;6.05;98.30;101042.00;5081753;28;20024;-75
2022/01/31 08:59:19;;;;;;;32.92;5.65;;;;;;;6.04;98.91;101023.66;5079739;28;20039;-75
2022/01/31 09:01:52;;;;;;;34.63;5.38;;;;;;;6.02;99.74;101038.34;5074026;28;20016;-74
2022/01/31 09:04:34;;;;;;;35.13;5.20;;;;;;;6.01;99.55;101067.91;5065707;28;20089;-75
2022/01/31 09:07:00;;;;;;;34.42;5.50;;;;;;;5.96;99.67;101075.56;5083875;28;20467;-76
2022/01/31 09:09:25;;;;;;;35.80;4.85;;;;;;;5.87;98.74;101064.75;5075198;28;20121;-75
2022/01/31 09:11:50;;;;;;;37.88;4.25;;;;;;;5.88;98.40;101045.63;5077038;28;20107;-76
2022/01/31 09:14:16;;;;;;;41.60;4.85;;;;;;;5.90;96.82;101064.84;5081657;28;20024;-75
2022/01/31 09:16:43;;;;;;;41.33;5.57;;;;;;;5.98;94.58;101054.75;5081575;28;20048;-76
2022/01/31 09:19:09;;;;;;;44.33;6.78;;;;;;;5.99;95.67;101067.84;5061437;28;20106;-75
2022/01/31 09:21:34;;;;;;;43.67;6.97;;;;;;;6.04;95.68;101079.38;5081286;28;20066;-76
2022/01/31 09:24:00;;;;;;;46.75;6.10;;;;;;;6.10;94.99;101038.66;5077363;28;20020;-76
2022/01/31 09:26:26;;;;;;;40.50;6.47;;;;;;;6.18;92.65;101060.75;5084608;28;20068;-76
2022/01/31 09:28:53;;;;;;;45.15;6.50;;;;;;;6.27;91.55;101061.09;5084122;28;20043;-75
2022/01/31 09:31:20;;;;;;;33.75;6.47;;;;;;;6.34;90.93;101088.34;5062526;28;20055;-75
2022/01/31 09:33:45;;;;;;;47.35;6.03;;;;;;;6.35;92.74;101077.94;5060331;28;20074;-77
2022/01/31 09:36:11;;;;;;;51.80;6.20;;;;;;;6.37;90.75;101084.09;5072949;28;20058;-76
2022/01/31 09:38:36;;;;;;;40.42;7.43;;;;;;;6.35;90.59;101091.00;5093662;28;20039;-77
2022/01/31 09:41:02;;;;;;;40.28;5.72;;;;;;;6.38;89.34;101091.13;5062218;28;20032;-76
2022/01/31 09:46:32;;;;;;;39.40;4.65;;;;;;;6.43;87.55;101087.78;5087891;28;20506;-74
2022/01/31 09:48:58;;;;;;;36.28;5.25;;;;;;;6.47;86.48;101105.38;5092520;27;20102;-75
2022/01/31 09:51:25;;;;;;;48.97;6.25;;;;;;;6.46;85.77;101100.97;5090886;28;20028;-75
2022/01/31 09:53:58;;;;;;;39.60;6.75;;;;;;;6.45;86.46;101112.28;5102282;28;20510;-76
2022/01/31 09:56:27;;;;;;;34.58;5.55;;;;;;;6.48;84.76;101101.94;5108604;28;20076;-75
2022/01/31 09:58:55;;;;;;;29.42;6.15;;;;;;;6.51;84.66;101142.16;5104380;27;20028;-73
2022/01/31 10:01:24;;;;;;;45.90;5.88;;;;;;;6.49;86.14;101122.00;5115579;27;20055;-75
2022/01/31 10:04:01;;;;;;;46.80;6.85;;;;;;;6.49;86.75;101156.00;5085231;28;20020;-75
2022/01/31 10:06:35;;;;;;;39.70;5.90;;;;;;;6.44;88.62;101158.41;5119302;27;20091;-75
2022/01/31 10:09:19;;;;;;;48.25;5.72;;;;;;;6.27;91.94;101185.63;5094877;28;20030;-75
2022/01/31 10:11:56;;;;;;;37.83;5.80;;;;;;;6.12;90.97;101193.75;5085681;28;20024;-76
2022/01/31 10:17:29;;;;;;;50.63;7.97;;;;;;;6.16;91.08;101193.94;5101188;27;20058;-76
2022/01/31 10:20:07;;;;;;;37.90;5.82;;;;;;;6.21;92.14;101199.34;5080410;28;20028;-76
2022/01/31 10:22:35;;;;;;;37.17;6.65;;;;;;;6.23;88.67;101210.75;5088145;27;20042;-76
2022/01/31 10:25:07;;;;;;;36.25;6.03;;;;;;;6.27;89.80;101222.19;5081458;28;20075;-77
2022/01/31 10:27:34;;;;;;;45.60;6.05;;;;;;;6.28;90.23;101224.91;5084783;28;20027;-76
2022/01/31 10:30:13;;;;;;;29.40;4.88;;;;;;;6.37;89.24;101227.84;5104285;27;20464;-74
2022/01/31 10:32:41;;;;;;;52.83;6.90;;;;;;;6.42;91.22;101222.84;5109867;27;20019;-73
2022/01/31 10:35:10;;;;;;;44.65;5.38;;;;;;;6.35;91.43;101226.94;5114172;27;20113;-75
2022/01/31 10:37:40;;;;;;;36.15;5.30;;;;;;;6.22;92.49;101229.88;5096013;28;20116;-74
2022/01/31 10:56:49;;;;;;;49.88;7.50;;;;;;;6.08;94.29;101242.38;5105810;27;20035;-74
2022/01/31 10:59:15;;;;;;;40.45;7.22;;;;;;;6.16;93.37;101261.88;5101647;27;20098;-75
2022/01/31 11:01:42;;;;;;;47.45;7.28;;;;;;;6.22;92.50;101250.78;5105090;27;20027;-75
2022/01/31 11:04:14;;;;;;;49.03;7.63;;;;;;;6.27;91.59;101264.03;5089156;27;20104;-75
2022/01/31 11:06:42;;;;;;;43.05;7.78;;;;;;;6.28;92.40;101284.09;5090571;28;20016;-75
2022/01/31 11:09:18;;;;;;;41.97;9.07;;;;;;;6.27;89.27;101264.94;5099656;27;20031;-75
2022/01/31 11:11:48;;;;;;;43.33;7.55;;;;;;;6.32;89.94;101268.63;5104911;28;20043;-76
2022/01/31 11:14:15;;;;;;;41.97;6.78;;;;;;;6.34;90.36;101266.94;5106436;28;20476;-74
2022/01/31 11:16:44;;;;;;;51.58;6.60;;;;;;;6.32;90.04;101267.72;5096758;27;20471;-75
2022/01/31 11:19:11;;;;;;;41.92;6.75;;;;;;;6.30;91.52;101279.84;5077344;28;20058;-74
2022/01/31 11:21:44;;;;;;;37.28;5.60;;;;;;;6.28;91.61;101277.19;5107647;27;20027;-75
2022/01/31 11:24:27;;;;;;;42.88;5.93;;;;;;;6.21;92.65;101301.25;5097601;27;20020;-75
2022/01/31 11:26:58;;;;;;;68.22;7.78;;;;;;;5.99;96.25;101330.81;5084511;28;20468;-74
2022/01/31 11:29:24;;;;;;;51.13;7.43;;;;;;;5.74;98.51;101325.38;5104102;27;20035;-74
2022/01/31 11:31:49;;;;;;;54.35;7.25;;;;;;;5.58;99.60;101335.97;5103520;27;20031;-75
2022/01/31 11:34:15;;;;;;;56.15;7.13;;;;;;;5.52;100.00;101338.28;5108783;27;20062;-74
2022/01/31 11:36:42;;;;;;;58.78;8.23;;;;;;;5.49;100.00;101338.16;5104886;27;20106;-75
2022/01/31 11:39:12;;;;;;;52.97;8.57;;;;;;;5.46;100.00;101345.88;5088912;28;20027;-74
2022/01/31 11:41:51;;;;;;;55.20;6.97;;;;;;;5.45;100.00;101338.84;5089590;28;20038;-73
2022/01/31 11:44:27;;;;;;;43.22;7.25;;;;;;;5.43;100.00;101358.78;5107852;27;20067;-73
2022/01/31 11:46:55;;;;;;;42.38;5.93;;;;;;;5.37;100.00;101348.94;5110065;27;20032;-73